Station Historical Data
Daily Summary for February 2, 2012 Units:  English    Metric   Both
« Previous Day
Next Day »
Daily Weekly Monthly Yearly Custom
  High: Low: Average:
Temperature: 62.6 °F 47.3 °F 54.2 °F
Dew Point: 54.4 °F 33.5 °F 42.5 °F
Humidity: 97% 36% 69%
Wind Speed: 11.0mph 0.0mph 3.4mph
Wind Gust: 14.0mph - -
Wind- - ESE
Pressure: 30.28 in 30.08 in -
Precipitation: 0.01 in    
Historical Graphs
 
 
Tabular Data for February 2, 2012
Time Temperature Dew Point Pressure Wind Wind Speed Wind Gust Humidity Rainfall Rate (Hourly) Conditions
00:00 55.8 °F 54.4 °F 30.08 in SSE 3.0 mph 3.0 mph 95% 0.00 in
00:01 55.7 °F 54.3 °F 30.08 in SSE 2.0 mph 4.0 mph 95% 0.00 in
00:06 55.6 °F 54.2 °F 30.08 in SSE 1.0 mph 3.0 mph 95% 0.00 in
00:11 55.4 °F 54.0 °F 30.08 in South 2.0 mph 3.0 mph 95% 0.00 in
00:16 55.1 °F 53.7 °F 30.08 in South 2.0 mph 2.0 mph 95% 0.00 in
00:21 54.9 °F 53.5 °F 30.08 in South 1.0 mph 2.0 mph 95% 0.00 in
00:26 54.6 °F 53.2 °F 30.08 in SSE 2.0 mph 2.0 mph 95% 0.00 in
00:31 54.5 °F 53.1 °F 30.08 in SSE 2.0 mph 2.0 mph 95% 0.00 in
00:36 54.3 °F 52.9 °F 30.08 in Calm   2.0 mph 95% 0.00 in
00:41 54.1 °F 52.7 °F 30.08 in Calm     95% 0.00 in
00:46 53.8 °F 52.4 °F 30.08 in Calm   1.0 mph 95% 0.00 in
00:51 53.6 °F 52.2 °F 30.09 in Calm     95% 0.00 in
00:56 53.4 °F 52.3 °F 30.09 in WSW 1.0 mph 1.0 mph 96% 0.00 in
01:02 53.4 °F 52.3 °F 30.09 in SW 1.0 mph 1.0 mph 96% 0.00 in
01:07 52.9 °F 51.8 °F 30.09 in SW 1.0 mph 2.0 mph 96% 0.00 in
01:12 52.6 °F 51.5 °F 30.09 in SW 2.0 mph 2.0 mph 96% 0.00 in
01:17 52.5 °F 51.4 °F 30.09 in SW 2.0 mph 2.0 mph 96% 0.00 in
01:22 52.7 °F 51.6 °F 30.09 in SW 2.0 mph 2.0 mph 96% 0.00 in
01:27 52.8 °F 51.7 °F 30.09 in WSW 2.0 mph 3.0 mph 96% 0.00 in
01:32 52.9 °F 51.8 °F 30.09 in WSW 2.0 mph 3.0 mph 96% 0.00 in
01:37 52.6 °F 51.5 °F 30.09 in WSW 2.0 mph 2.0 mph 96% 0.00 in
01:42 52.2 °F 51.1 °F 30.09 in Calm   1.0 mph 96% 0.00 in
01:48 52.2 °F 51.1 °F 30.10 in WSW 2.0 mph 2.0 mph 96% 0.00 in
01:53 52.6 °F 51.5 °F 30.10 in WSW 3.0 mph 3.0 mph 96% 0.00 in
01:58 52.7 °F 51.6 °F 30.10 in WSW 3.0 mph 4.0 mph 96% 0.00 in
02:03 52.7 °F 51.6 °F 30.10 in WSW 2.0 mph 4.0 mph 96% 0.00 in
02:08 52.4 °F 51.3 °F 30.10 in WSW 1.0 mph 1.0 mph 96% 0.00 in
02:13 51.9 °F 50.8 °F 30.10 in West 1.0 mph 1.0 mph 96% 0.00 in
02:18 51.7 °F 50.6 °F 30.10 in Calm   1.0 mph 96% 0.00 in
02:23 51.5 °F 50.4 °F 30.10 in Calm     96% 0.00 in
02:28 51.5 °F 50.4 °F 30.11 in Calm   1.0 mph 96% 0.00 in
02:33 51.3 °F 50.2 °F 30.11 in SW 1.0 mph 1.0 mph 96% 0.00 in
02:38 51.1 °F 50.0 °F 30.11 in SW 1.0 mph 1.0 mph 96% 0.00 in
02:43 50.8 °F 49.7 °F 30.11 in SW 1.0 mph 1.0 mph 96% 0.00 in
02:48 50.6 °F 49.5 °F 30.11 in Calm     96% 0.00 in
02:53 50.4 °F 49.3 °F 30.11 in Calm     96% 0.00 in
02:58 50.3 °F 49.2 °F 30.11 in Calm     96% 0.00 in
03:03 50.8 °F 49.7 °F 30.11 in SW 1.0 mph 2.0 mph 96% 0.00 in
03:08 50.9 °F 49.8 °F 30.12 in West 1.0 mph 2.0 mph 96% 0.00 in
03:13 50.8 °F 49.7 °F 30.12 in Calm   1.0 mph 96% 0.00 in
03:18 51.2 °F 50.1 °F 30.12 in Calm   1.0 mph 96% 0.00 in
03:23 51.5 °F 50.4 °F 30.12 in Calm   1.0 mph 96% 0.00 in
03:28 51.6 °F 50.5 °F 30.12 in Calm   1.0 mph 96% 0.00 in
03:33 51.7 °F 50.6 °F 30.12 in Calm     96% 0.00 in
03:38 51.9 °F 50.8 °F 30.12 in Calm   1.0 mph 96% 0.00 in
03:43 51.9 °F 50.8 °F 30.12 in WSW 1.0 mph 1.0 mph 96% 0.00 in
03:48 51.9 °F 50.8 °F 30.12 in WSW 1.0 mph 1.0 mph 96% 0.00 in
03:53 51.9 °F 50.8 °F 30.12 in Calm   1.0 mph 96% 0.00 in
03:58 51.8 °F 50.7 °F 30.13 in West 1.0 mph 1.0 mph 96% 0.00 in
04:03 51.9 °F 50.8 °F 30.13 in West 1.0 mph 1.0 mph 96% 0.00 in
04:08 51.9 °F 50.8 °F 30.13 in West 1.0 mph 2.0 mph 96% 0.00 in
04:13 51.8 °F 50.7 °F 30.13 in WNW 1.0 mph 2.0 mph 96% 0.00 in
04:18 51.7 °F 50.6 °F 30.13 in Calm   1.0 mph 96% 0.00 in
04:23 51.7 °F 50.6 °F 30.13 in NW 1.0 mph 2.0 mph 96% 0.00 in
04:28 51.8 °F 50.7 °F 30.13 in Calm   1.0 mph 96% 0.00 in
04:33 51.8 °F 50.7 °F 30.13 in NW 1.0 mph 1.0 mph 96% 0.00 in
04:39 51.9 °F 50.8 °F 30.13 in Calm   1.0 mph 96% 0.00 in
04:44 51.9 °F 50.8 °F 30.14 in Calm     96% 0.00 in
04:49 51.9 °F 50.8 °F 30.14 in NW 1.0 mph 1.0 mph 96% 0.00 in
04:54 52.0 °F 50.9 °F 30.14 in Calm   1.0 mph 96% 0.00 in
04:59 51.8 °F 50.7 °F 30.14 in Calm     96% 0.00 in
05:04 51.8 °F 50.7 °F 30.14 in Calm     96% 0.00 in
05:09 51.8 °F 50.7 °F 30.14 in Calm   1.0 mph 96% 0.00 in
05:14 52.0 °F 50.9 °F 30.14 in Calm   2.0 mph 96% 0.00 in
05:19 52.0 °F 50.9 °F 30.14 in NW 1.0 mph 2.0 mph 96% 0.00 in
05:24 51.9 °F 50.8 °F 30.15 in NW 1.0 mph 2.0 mph 96% 0.00 in
05:29 51.8 °F 50.7 °F 30.15 in NNW 1.0 mph 2.0 mph 96% 0.00 in
05:34 51.7 °F 50.6 °F 30.15 in NNW 1.0 mph 2.0 mph 96% 0.00 in
05:39 51.6 °F 50.5 °F 30.15 in NNW 1.0 mph 1.0 mph 96% 0.00 in
05:44 51.5 °F 50.4 °F 30.15 in NNW 1.0 mph 1.0 mph 96% 0.00 in
05:49 51.4 °F 50.3 °F 30.15 in NNW 2.0 mph 2.0 mph 96% 0.00 in
05:54 51.3 °F 50.2 °F 30.15 in NNW 3.0 mph 3.0 mph 96% 0.00 in
05:59 51.2 °F 50.1 °F 30.15 in NNW 3.0 mph 3.0 mph 96% 0.00 in
06:04 50.9 °F 49.8 °F 30.16 in NNW 2.0 mph 3.0 mph 96% 0.00 in
06:09 50.9 °F 49.8 °F 30.16 in NNW 2.0 mph 3.0 mph 96% 0.00 in
06:14 50.9 °F 49.8 °F 30.16 in North 2.0 mph 3.0 mph 96% 0.00 in
06:19 50.9 °F 49.8 °F 30.16 in NNW 1.0 mph 2.0 mph 96% 0.00 in
06:24 50.8 °F 49.7 °F 30.17 in NNW 1.0 mph 2.0 mph 96% 0.00 in
06:29 50.8 °F 49.7 °F 30.17 in NNW 2.0 mph 2.0 mph 96% 0.00 in
06:34 50.7 °F 49.6 °F 30.17 in NW 1.0 mph 1.0 mph 96% 0.00 in
06:39 50.6 °F 49.8 °F 30.18 in NNW 2.0 mph 2.0 mph 97% 0.00 in
06:44 50.5 °F 49.7 °F 30.18 in NNW 1.0 mph 2.0 mph 97% 0.00 in
06:49 50.3 °F 49.5 °F 30.18 in NNW 2.0 mph 2.0 mph 97% 0.00 in
06:54 50.1 °F 49.3 °F 30.18 in Calm   2.0 mph 97% 0.00 in
06:59 49.9 °F 49.1 °F 30.18 in NNW 2.0 mph 3.0 mph 97% 0.00 in
07:04 49.9 °F 49.1 °F 30.19 in NNW 2.0 mph 3.0 mph 97% 0.00 in
07:09 49.7 °F 48.9 °F 30.19 in North 2.0 mph 3.0 mph 97% 0.00 in
07:14 49.4 °F 48.6 °F 30.19 in North 3.0 mph 3.0 mph 97% 0.00 in
07:20 49.2 °F 48.4 °F 30.19 in North 1.0 mph 2.0 mph 97% 0.00 in
07:25 48.9 °F 48.1 °F 30.19 in NNE 2.0 mph 4.0 mph 97% 0.00 in
07:30 48.6 °F 47.8 °F 30.20 in NNW 2.0 mph 3.0 mph 97% 0.00 in
07:35 48.5 °F 47.7 °F 30.20 in NW 2.0 mph 3.0 mph 97% 0.00 in
07:38 48.3 °F 47.5 °F 30.20 in NNW 4.0 mph 4.0 mph 97% 0.00 in
07:43 48.3 °F 47.5 °F 30.20 in NNW 2.0 mph 3.0 mph 97% 0.00 in
07:48 48.1 °F 47.3 °F 30.21 in NNW 2.0 mph 6.0 mph 97% 0.00 in
07:53 47.9 °F 47.1 °F 30.21 in North 2.0 mph 5.0 mph 97% 0.00 in
07:58 47.6 °F 46.8 °F 30.21 in North 3.0 mph 4.0 mph 97% 0.00 in
08:04 47.4 °F 46.6 °F 30.21 in North 3.0 mph 4.0 mph 97% 0.00 in
08:09 47.3 °F 46.5 °F 30.22 in North 3.0 mph 4.0 mph 97% 0.00 in
08:14 47.3 °F 46.5 °F 30.22 in North 2.0 mph 4.0 mph 97% 0.00 in
08:19 47.4 °F 46.6 °F 30.22 in NNE 3.0 mph 4.0 mph 97% 0.00 in
08:24 47.8 °F 47.0 °F 30.22 in NNE 2.0 mph 3.0 mph 97% 0.00 in
08:29 47.9 °F 47.1 °F 30.22 in North 2.0 mph 3.0 mph 97% 0.00 in
08:34 48.1 °F 47.3 °F 30.22 in NNE 4.0 mph 4.0 mph 97% 0.00 in
08:39 48.3 °F 47.2 °F 30.22 in North 3.0 mph 4.0 mph 96% 0.00 in
08:44 48.4 °F 47.3 °F 30.22 in NE 4.0 mph 7.0 mph 96% 0.00 in
08:49 48.6 °F 47.5 °F 30.22 in NNE 3.0 mph 6.0 mph 96% 0.00 in
08:54 48.7 °F 47.6 °F 30.22 in NW 4.0 mph 8.0 mph 96% 0.00 in
08:59 49.0 °F 47.6 °F 30.22 in NE 6.0 mph 10.0 mph 95% 0.00 in
09:04 49.3 °F 47.4 °F 30.22 in North 3.0 mph 8.0 mph 93% 0.00 in
09:09 49.7 °F 47.5 °F 30.22 in North 6.0 mph 8.0 mph 92% 0.00 in
09:14 49.9 °F 47.4 °F 30.22 in NNW 5.0 mph 9.0 mph 91% 0.00 in
09:19 50.1 °F 47.6 °F 30.23 in NNE 5.0 mph 8.0 mph 91% 0.00 in
09:24 50.4 °F 47.3 °F 30.23 in NNE 6.0 mph 7.0 mph 89% 0.00 in
09:30 50.6 °F 47.2 °F 30.24 in NE 5.0 mph 8.0 mph 88% 0.00 in
09:35 50.8 °F 47.1 °F 30.24 in NNE 1.0 mph 9.0 mph 87% 0.00 in
09:40 51.0 °F 47.0 °F 30.24 in NNE 5.0 mph 9.0 mph 86% 0.00 in
09:45 51.1 °F 46.8 °F 30.24 in NNE 6.0 mph 11.0 mph 85% 0.00 in
09:50 51.3 °F 47.6 °F 30.24 in NNE 2.0 mph 9.0 mph 87% 0.00 in
09:55 51.5 °F 47.2 °F 30.25 in North 6.0 mph 10.0 mph 85% 0.00 in
10:00 51.7 °F 46.4 °F 30.25 in NNE 5.0 mph 11.0 mph 82% 0.00 in
10:05 51.9 °F 46.9 °F 30.25 in NNE 3.0 mph 7.0 mph 83% 0.00 in
10:10 52.1 °F 46.8 °F 30.25 in NE 6.0 mph 8.0 mph 82% 0.00 in
10:15 52.3 °F 47.0 °F 30.26 in North 7.0 mph 8.0 mph 82% 0.00 in
10:20 52.6 °F 46.9 °F 30.26 in NNE 7.0 mph 7.0 mph 81% 0.00 in
10:25 52.7 °F 46.4 °F 30.26 in NNE 6.0 mph 7.0 mph 79% 0.00 in
10:30 52.9 °F 46.6 °F 30.25 in NNE 3.0 mph 6.0 mph 79% 0.00 in
10:35 53.2 °F 45.5 °F 30.26 in NE 6.0 mph 8.0 mph 75% 0.00 in
10:40 53.3 °F 45.6 °F 30.26 in NE 3.0 mph 9.0 mph 75% 0.00 in
10:46 53.7 °F 46.0 °F 30.26 in NNE 3.0 mph 5.0 mph 75% 0.00 in
10:51 54.1 °F 45.7 °F 30.26 in NE 2.0 mph 4.0 mph 73% 0.00 in
10:56 54.5 °F 46.4 °F 30.26 in North 5.0 mph 6.0 mph 74% 0.00 in
11:01 54.7 °F 44.4 °F 30.26 in NE 4.0 mph 6.0 mph 68% 0.00 in
11:06 54.9 °F 43.8 °F 30.26 in NE 3.0 mph 7.0 mph 66% 0.00 in
11:11 55.2 °F 45.2 °F 30.26 in NNE 6.0 mph 9.0 mph 69% 0.00 in
11:16 55.5 °F 44.7 °F 30.26 in NNE 4.0 mph 8.0 mph 67% 0.00 in
11:21 55.8 °F 45.8 °F 30.26 in North 4.0 mph 6.0 mph 69% 0.00 in
11:26 56.0 °F 43.6 °F 30.26 in NNW 5.0 mph 9.0 mph 63% 0.00 in
11:31 56.2 °F 44.6 °F 30.26 in NE 3.0 mph 7.0 mph 65% 0.00 in
11:36 56.5 °F 44.1 °F 30.26 in NE 5.0 mph 8.0 mph 63% 0.00 in
11:41 56.8 °F 44.3 °F 30.26 in NE 3.0 mph 5.0 mph 63% 0.00 in
11:46 57.0 °F 44.5 °F 30.26 in NNE 6.0 mph 7.0 mph 63% 0.00 in
11:51 57.4 °F 42.8 °F 30.26 in NE 6.0 mph 9.0 mph 58% 0.00 in
11:57 57.5 °F 42.4 °F 30.26 in NNE 7.0 mph 8.0 mph 57% 0.00 in
12:02 57.8 °F 41.8 °F 30.26 in NNE 8.0 mph 12.0 mph 55% 0.00 in
12:07 57.9 °F 39.9 °F 30.25 in NE 8.0 mph 12.0 mph 51% 0.00 in
12:12 58.0 °F 40.0 °F 30.25 in NE 7.0 mph 9.0 mph 51% 0.00 in
12:17 58.3 °F 39.8 °F 30.25 in NE 7.0 mph 12.0 mph 50% 0.00 in
12:22 58.6 °F 42.5 °F 30.25 in NE 7.0 mph 9.0 mph 55% 0.00 in
12:27 59.1 °F 42.5 °F 30.25 in NNE 4.0 mph 6.0 mph 54% 0.00 in
12:32 59.4 °F 43.7 °F 30.25 in North 4.0 mph 7.0 mph 56% 0.00 in
12:37 59.7 °F 40.0 °F 30.25 in NE 5.0 mph 7.0 mph 48% 0.00 in
12:42 59.6 °F 38.8 °F 30.24 in NE 6.0 mph 10.0 mph 46% 0.00 in
12:47 59.5 °F 37.6 °F 30.24 in NNE 5.0 mph 9.0 mph 44% 0.00 in
12:52 59.7 °F 37.2 °F 30.24 in NNE 5.0 mph 12.0 mph 43% 0.00 in
12:57 60.0 °F 39.2 °F 30.24 in North 7.0 mph 10.0 mph 46% 0.00 in
13:02 60.1 °F 38.7 °F 30.24 in NNE 6.0 mph 12.0 mph 45% 0.00 in
13:07 60.2 °F 37.6 °F 30.24 in North 9.0 mph 11.0 mph 43% 0.00 in
13:12 60.7 °F 38.1 °F 30.23 in North 7.0 mph 12.0 mph 43% 0.00 in
13:17 60.8 °F 38.2 °F 30.23 in NNW 7.0 mph 11.0 mph 43% 0.00 in
13:22 61.1 °F 39.0 °F 30.23 in NE 7.0 mph 11.0 mph 44% 0.00 in
13:27 60.8 °F 37.6 °F 30.23 in NE 4.0 mph 10.0 mph 42% 0.00 in
13:32 61.3 °F 36.8 °F 30.23 in NNW 8.0 mph 12.0 mph 40% 0.00 in
13:37 61.3 °F 36.2 °F 30.22 in NNE 8.0 mph 11.0 mph 39% 0.00 in
13:42 61.4 °F 36.2 °F 30.22 in NNE 8.0 mph 10.0 mph 39% 0.00 in
13:47 61.3 °F 36.8 °F 30.22 in NNW 9.0 mph 10.0 mph 40% 0.00 in
13:52 61.5 °F 38.8 °F 30.22 in NNE 6.0 mph 9.0 mph 43% 0.00 in
13:57 61.8 °F 37.9 °F 30.22 in North 10.0 mph 10.0 mph 41% 0.00 in
14:03 61.7 °F 38.4 °F 30.22 in NNE 6.0 mph 10.0 mph 42% 0.00 in
14:08 61.8 °F 37.2 °F 30.22 in NNE 7.0 mph 11.0 mph 40% 0.00 in
14:13 62.1 °F 38.1 °F 30.22 in North 9.0 mph 11.0 mph 41% 0.00 in
14:18 62.2 °F 37.6 °F 30.21 in NNE 8.0 mph 11.0 mph 40% 0.00 in
14:23 61.9 °F 39.2 °F 30.21 in NE 6.0 mph 9.0 mph 43% 0.00 in
14:28 62.0 °F 35.5 °F 30.21 in NE 9.0 mph 12.0 mph 37% 0.00 in
14:33 61.8 °F 35.3 °F 30.21 in NE 5.0 mph 10.0 mph 37% 0.00 in
14:38 62.2 °F 38.2 °F 30.22 in NNE 9.0 mph 9.0 mph 41% 0.00 in
14:43 62.4 °F 37.8 °F 30.22 in NE 5.0 mph 9.0 mph 40% 0.00 in
14:48 62.1 °F 36.9 °F 30.21 in East 6.0 mph 8.0 mph 39% 0.00 in
14:53 62.4 °F 37.1 °F 30.21 in NE 4.0 mph 9.0 mph 39% 0.00 in
14:58 62.2 °F 36.3 °F 30.22 in NE 8.0 mph 12.0 mph 38% 0.00 in
15:03 62.2 °F 36.3 °F 30.21 in NE 11.0 mph 11.0 mph 38% 0.00 in
15:08 62.2 °F 35.6 °F 30.21 in NE 9.0 mph 11.0 mph 37% 0.00 in
15:13 62.3 °F 38.3 °F 30.21 in NE 5.0 mph 8.0 mph 41% 0.00 in
15:18 62.4 °F 35.8 °F 30.21 in NNE 5.0 mph 11.0 mph 37% 0.00 in
15:23 62.3 °F 35.7 °F 30.21 in NNE 10.0 mph 10.0 mph 37% 0.00 in
15:28 62.2 °F 35.6 °F 30.21 in NE 7.0 mph 11.0 mph 37% 0.00 in
15:33 62.3 °F 36.4 °F 30.21 in North 7.0 mph 12.0 mph 38% 0.00 in
15:38 62.4 °F 36.5 °F 30.21 in North 5.0 mph 11.0 mph 38% 0.00 in
15:43 62.6 °F 38.6 °F 30.21 in North 8.0 mph 9.0 mph 41% 0.00 in
15:48 62.6 °F 37.3 °F 30.21 in NNE 8.0 mph 12.0 mph 39% 0.00 in
15:53 62.4 °F 37.1 °F 30.21 in North 6.0 mph 12.0 mph 39% 0.00 in
15:58 62.6 °F 36.0 °F 30.21 in NNE 7.0 mph 10.0 mph 37% 0.00 in
16:03 62.4 °F 35.8 °F 30.21 in NNE 10.0 mph 10.0 mph 37% 0.00 in
16:08 62.3 °F 35.0 °F 30.21 in NE 6.0 mph 14.0 mph 36% 0.00 in
16:13 62.2 °F 36.3 °F 30.21 in NE 9.0 mph 10.0 mph 38% 0.00 in
16:18 62.3 °F 35.7 °F 30.21 in NNE 7.0 mph 8.0 mph 37% 0.00 in
16:23 62.3 °F 35.0 °F 30.21 in NNE 5.0 mph 8.0 mph 36% 0.00 in
16:28 62.3 °F 35.7 °F 30.21 in NNE 4.0 mph 7.0 mph 37% 0.00 in
16:33 62.2 °F 37.6 °F 30.21 in NE 4.0 mph 11.0 mph 40% 0.00 in
16:38 62.0 °F 36.1 °F 30.21 in ENE 3.0 mph 7.0 mph 38% 0.00 in
16:43 62.0 °F 36.1 °F 30.21 in NE 4.0 mph 6.0 mph 38% 0.00 in
16:48 62.1 °F 36.2 °F 30.21 in NE 8.0 mph 9.0 mph 38% 0.00 in
16:53 62.0 °F 37.4 °F 30.22 in NE 3.0 mph 7.0 mph 40% 0.00 in
16:59 62.0 °F 37.4 °F 30.22 in East 4.0 mph 7.0 mph 40% 0.00 in
17:04 61.9 °F 36.7 °F 30.22 in ENE 5.0 mph 9.0 mph 39% 0.00 in
17:09 61.8 °F 36.6 °F 30.22 in NNE 4.0 mph 7.0 mph 39% 0.00 in
17:14 61.7 °F 37.2 °F 30.22 in NE 5.0 mph 5.0 mph 40% 0.00 in
17:19 61.6 °F 35.8 °F 30.22 in NE 3.0 mph 6.0 mph 38% 0.00 in
17:24 61.4 °F 36.2 °F 30.22 in NE 3.0 mph 7.0 mph 39% 0.00 in
17:29 61.3 °F 36.2 °F 30.22 in NE 4.0 mph 6.0 mph 39% 0.00 in
17:34 61.0 °F 35.9 °F 30.22 in NE 6.0 mph 8.0 mph 39% 0.00 in
17:39 60.9 °F 35.8 °F 30.22 in East 2.0 mph 4.0 mph 39% 0.00 in
17:44 60.6 °F 36.2 °F 30.23 in ESE 4.0 mph 6.0 mph 40% 0.00 in
17:49 60.1 °F 35.7 °F 30.23 in NE 4.0 mph 6.0 mph 40% 0.00 in
17:50 60.0 °F 35.0 °F 30.23 in NE 6.0 mph 6.0 mph 39% 0.00 in
17:55 59.7 °F 35.4 °F 30.22 in ESE 2.0 mph 7.0 mph 40% 0.00 in
18:00 59.2 °F 35.5 °F 30.23 in ENE 2.0 mph 4.0 mph 41% 0.00 in
18:05 58.8 °F 35.2 °F 30.23 in ENE 2.0 mph 3.0 mph 41% 0.00 in
18:10 58.3 °F 34.7 °F 30.23 in NE 5.0 mph 5.0 mph 41% 0.00 in
18:15 58.0 °F 35.1 °F 30.23 in ENE 4.0 mph 5.0 mph 42% 0.00 in
18:20 57.6 °F 34.7 °F 30.23 in NE 5.0 mph 5.0 mph 42% 0.00 in
18:25 57.4 °F 34.5 °F 30.23 in NE 4.0 mph 5.0 mph 42% 0.00 in
18:30 57.1 °F 34.2 °F 30.24 in NE 2.0 mph 5.0 mph 42% 0.00 in
18:35 57.0 °F 34.2 °F 30.24 in NE 2.0 mph 4.0 mph 42% 0.00 in
18:40 56.7 °F 33.9 °F 30.24 in East 3.0 mph 4.0 mph 42% 0.00 in
18:45 56.4 °F 34.2 °F 30.24 in NE 2.0 mph 4.0 mph 43% 0.00 in
18:50 56.2 °F 34.0 °F 30.24 in NE 2.0 mph 4.0 mph 43% 0.00 in
18:55 55.9 °F 33.8 °F 30.24 in NE 3.0 mph 5.0 mph 43% 0.00 in
19:00 55.9 °F 33.8 °F 30.24 in NNE 3.0 mph 3.0 mph 43% 0.00 in
19:05 55.7 °F 33.6 °F 30.24 in NE 2.0 mph 6.0 mph 43% 0.00 in
19:10 55.6 °F 33.5 °F 30.24 in NE 2.0 mph 4.0 mph 43% 0.00 in
19:15 55.4 °F 33.9 °F 30.24 in NE 1.0 mph 2.0 mph 44% 0.00 in
19:20 54.9 °F 34.0 °F 30.25 in NE 1.0 mph 2.0 mph 45% 0.00 in
19:25 54.6 °F 34.2 °F 30.25 in NE 1.0 mph 2.0 mph 46% 0.00 in
19:30 54.5 °F 34.2 °F 30.25 in NE 2.0 mph 3.0 mph 46% 0.00 in
19:35 54.4 °F 34.1 °F 30.25 in NE 2.0 mph 2.0 mph 46% 0.00 in
19:36 54.4 °F 34.1 °F 30.25 in NE 1.0 mph 2.0 mph 46% 0.00 in
19:41 54.5 °F 34.2 °F 30.25 in ENE 1.0 mph 4.0 mph 46% 0.00 in
19:46 54.4 °F 34.1 °F 30.25 in NE 3.0 mph 4.0 mph 46% 0.00 in
19:51 54.2 °F 34.4 °F 30.25 in NE 2.0 mph 3.0 mph 47% 0.00 in
19:56 53.6 °F 34.4 °F 30.25 in NNE 1.0 mph 3.0 mph 48% 0.00 in
20:01 53.1 °F 34.5 °F 30.25 in NNE 1.0 mph 3.0 mph 49% 0.00 in
20:06 52.7 °F 34.6 °F 30.25 in NNE 2.0 mph 2.0 mph 50% 0.00 in
20:11 52.4 °F 34.3 °F 30.25 in NNE 1.0 mph 2.0 mph 50% 0.00 in
20:16 52.3 °F 34.2 °F 30.25 in NNE 2.0 mph 2.0 mph 50% 0.00 in
20:21 52.2 °F 34.1 °F 30.25 in NNE 1.0 mph 2.0 mph 50% 0.00 in
20:26 52.0 °F 34.0 °F 30.26 in NE 2.0 mph 2.0 mph 50% 0.00 in
20:31 52.0 °F 34.0 °F 30.26 in NNE 2.0 mph 3.0 mph 50% 0.00 in
20:36 51.9 °F 34.4 °F 30.26 in NE 4.0 mph 5.0 mph 51% 0.00 in
20:37 51.9 °F 34.4 °F 30.26 in NE 4.0 mph 5.0 mph 51% 0.00 in
20:42 51.9 °F 34.4 °F 30.26 in NE 4.0 mph 4.0 mph 51% 0.00 in
20:47 51.7 °F 34.2 °F 30.27 in NNE 3.0 mph 5.0 mph 51% 0.00 in
20:52 51.7 °F 34.7 °F 30.27 in NNE 3.0 mph 6.0 mph 52% 0.00 in
20:57 51.4 °F 34.4 °F 30.27 in NNE 2.0 mph 5.0 mph 52% 0.00 in
21:02 51.3 °F 34.3 °F 30.27 in NNE 4.0 mph 4.0 mph 52% 0.00 in
21:07 51.2 °F 34.7 °F 30.27 in NNE 2.0 mph 4.0 mph 53% 0.00 in
21:12 51.2 °F 34.7 °F 30.27 in NNE 3.0 mph 4.0 mph 53% 0.00 in
21:17 51.2 °F 34.7 °F 30.27 in NNE 3.0 mph 5.0 mph 53% 0.00 in
21:22 51.1 °F 34.6 °F 30.28 in NE 3.0 mph 5.0 mph 53% 0.00 in
21:27 51.1 °F 34.6 °F 30.28 in NE 2.0 mph 4.0 mph 53% 0.00 in
21:32 51.1 °F 34.6 °F 30.28 in NE 3.0 mph 3.0 mph 53% 0.00 in
21:37 50.9 °F 34.4 °F 30.27 in NNE 4.0 mph 4.0 mph 53% 0.00 in
21:42 50.6 °F 34.6 °F 30.27 in NNE 2.0 mph 5.0 mph 54% 0.00 in
21:47 50.2 °F 34.7 °F 30.27 in NNE 3.0 mph 4.0 mph 55% 0.00 in
21:52 50.2 °F 34.7 °F 30.28 in NE 2.0 mph 4.0 mph 55% 0.00 in
21:57 50.3 °F 34.8 °F 30.28 in NE 3.0 mph 4.0 mph 55% 0.00 in
22:02 50.4 °F 34.9 °F 30.28 in NE 3.0 mph 4.0 mph 55% 0.00 in
22:07 50.6 °F 35.0 °F 30.28 in NE 4.0 mph 5.0 mph 55% 0.00 in
22:12 50.5 °F 35.4 °F 30.28 in NE 5.0 mph 5.0 mph 56% 0.00 in
22:17 50.6 °F 35.5 °F 30.28 in NNE 4.0 mph 4.0 mph 56% 0.00 in
22:22 50.3 °F 35.2 °F 30.28 in NNE 4.0 mph 5.0 mph 56% 0.00 in
22:28 50.0 °F 35.4 °F 30.28 in NE 3.0 mph 7.0 mph 57% 0.00 in
22:33 49.7 °F 35.1 °F 30.28 in NE 4.0 mph 5.0 mph 57% 0.00 in
22:38 49.5 °F 35.3 °F 30.28 in NE 2.0 mph 4.0 mph 58% 0.00 in
22:43 49.5 °F 35.3 °F 30.28 in NE 3.0 mph 5.0 mph 58% 0.00 in
22:48 49.6 °F 35.5 °F 30.28 in NE 5.0 mph 6.0 mph 58% 0.00 in
22:53 49.5 °F 35.3 °F 30.28 in NE 4.0 mph 5.0 mph 58% 0.00 in
22:58 49.5 °F 35.3 °F 30.28 in NNE 4.0 mph 6.0 mph 58% 0.00 in
23:03 49.2 °F 35.5 °F 30.27 in NNE 3.0 mph 5.0 mph 59% 0.00 in
23:08 49.0 °F 35.7 °F 30.28 in NE 3.0 mph 5.0 mph 60% 0.00 in
23:13 49.0 °F 35.3 °F 30.28 in NE 4.0 mph 5.0 mph 59% 0.00 in
23:18 48.8 °F 35.5 °F 30.28 in NNE 4.0 mph 5.0 mph 60% 0.00 in
23:23 48.5 °F 35.3 °F 30.28 in NNE 3.0 mph 5.0 mph 60% 0.00 in
23:28 48.2 °F 35.4 °F 30.28 in NNE 3.0 mph 5.0 mph 61% 0.00 in
23:33 48.2 °F 35.4 °F 30.28 in NE 4.0 mph 6.0 mph 61% 0.00 in
23:38 48.2 °F 35.4 °F 30.28 in NE 3.0 mph 5.0 mph 61% 0.00 in
23:43 48.3 °F 35.5 °F 30.28 in NNE 4.0 mph 6.0 mph 61% 0.00 in
23:48 48.1 °F 35.3 °F 30.27 in NNE 4.0 mph 6.0 mph 61% 0.00 in
23:53 47.9 °F 35.1 °F 30.28 in NNE 4.0 mph 6.0 mph 61% 0.00 in
23:58 47.7 °F 35.3 °F 30.27 in NNE 5.0 mph 5.0 mph 62% 0.00 in
Compliments of Weather Underground